createdAt,value
2024-02-17T00:00:53.272Z,102761.70
2024-02-17T00:03:24.584Z,102758.48
2024-02-17T00:05:52.591Z,102762.01
2024-02-17T00:08:20.191Z,102759.17
2024-02-17T00:10:47.524Z,102760.07
2024-02-17T00:13:14.841Z,102758.62
2024-02-17T00:15:42.181Z,102750.84
2024-02-17T00:18:10.537Z,102747.67
2024-02-17T00:20:37.949Z,102748.88
2024-02-17T00:23:05.491Z,102748.67
2024-02-17T00:25:33.358Z,102747.38
2024-02-17T00:28:00.607Z,102745.34
2024-02-17T00:30:27.937Z,102738.48
2024-02-17T00:32:55.480Z,102734.67
2024-02-17T00:35:22.878Z,102730.05
2024-02-17T00:37:50.212Z,102727.20
2024-02-17T00:40:17.623Z,102721.34
2024-02-17T00:42:45.188Z,102716.55
2024-02-17T00:45:12.526Z,102712.34
2024-02-17T00:47:39.854Z,102707.73
2024-02-17T00:50:08.215Z,102708.73
2024-02-17T00:52:35.449Z,102709.31
2024-02-17T00:55:02.986Z,102706.41
2024-02-17T00:57:30.253Z,102710.06
2024-02-17T00:59:57.512Z,102711.96
2024-02-17T01:02:24.823Z,102708.88
2024-02-17T01:04:52.213Z,102704.58
2024-02-17T01:07:19.788Z,102700.08
2024-02-17T01:09:47.202Z,102701.85
2024-02-17T01:12:14.576Z,102695.33
2024-02-17T01:14:41.839Z,102690.05
2024-02-17T01:17:09.161Z,102690.96
2024-02-17T01:19:36.440Z,102689.08
2024-02-17T01:22:03.902Z,102689.00
2024-02-17T01:24:31.258Z,102694.20
2024-02-17T01:26:58.584Z,102692.41
2024-02-17T01:29:25.801Z,102689.01
2024-02-17T01:31:54.878Z,102689.15
2024-02-17T01:34:22.264Z,102690.02
2024-02-17T01:36:51.072Z,102686.24
2024-02-17T01:39:18.396Z,102685.49
2024-02-17T01:41:45.672Z,102683.02
2024-02-17T01:44:14.134Z,102680.36
2024-02-17T01:46:41.435Z,102682.14
2024-02-17T01:49:08.963Z,102681.11
2024-02-17T01:51:36.419Z,102680.95
2024-02-17T01:54:04.602Z,102682.05
2024-02-17T01:56:31.966Z,102683.70
2024-02-17T01:58:59.898Z,102679.55
2024-02-17T02:01:27.296Z,102679.76
2024-02-17T02:03:54.846Z,102678.89
2024-02-17T02:06:25.417Z,102676.23
2024-02-17T02:08:53.002Z,102678.74
2024-02-17T02:11:20.270Z,102675.89
2024-02-17T02:13:48.088Z,102671.62
2024-02-17T02:16:18.717Z,102672.30
2024-02-17T02:18:46.210Z,102674.23
2024-02-17T02:21:13.639Z,102669.23
2024-02-17T02:23:45.730Z,102668.35
2024-02-17T02:26:13.084Z,102664.62
2024-02-17T02:28:40.352Z,102658.77
2024-02-17T02:31:07.553Z,102657.17
2024-02-17T02:33:34.895Z,102654.16
2024-02-17T02:36:02.409Z,102650.23
2024-02-17T02:38:29.786Z,102646.09
2024-02-17T02:40:57.002Z,102644.27
2024-02-17T02:43:24.332Z,102641.58
2024-02-17T02:45:51.677Z,102638.34
2024-02-17T02:48:19.153Z,102636.67
2024-02-17T02:50:46.962Z,102629.94
2024-02-17T02:53:14.223Z,102628.53
2024-02-17T02:55:41.477Z,102627.98
2024-02-17T02:58:08.744Z,102626.05
2024-02-17T03:00:36.121Z,102622.34
2024-02-17T03:03:03.725Z,102617.38
2024-02-17T03:05:31.935Z,102614.13
2024-02-17T03:07:59.190Z,102612.30
2024-02-17T03:10:26.416Z,102603.25
2024-02-17T03:12:53.723Z,102600.70
2024-02-17T03:15:21.124Z,102596.68
2024-02-17T03:17:48.755Z,102588.64
2024-02-17T03:20:16.423Z,102582.70
2024-02-17T03:22:44.349Z,102581.20
2024-02-17T03:25:12.245Z,102584.89
2024-02-17T03:27:40.424Z,102583.64
2024-02-17T03:30:08.408Z,102583.42
2024-02-17T03:32:35.833Z,102581.25
2024-02-17T03:35:05.200Z,102581.39
2024-02-17T03:37:32.619Z,102580.04
2024-02-17T03:40:00.173Z,102580.80
2024-02-17T03:42:27.702Z,102581.05
2024-02-17T03:44:54.948Z,102574.73
2024-02-17T03:47:22.300Z,102571.59
2024-02-17T03:49:49.731Z,102568.84
2024-02-17T03:52:17.451Z,102565.98
2024-02-17T03:54:44.831Z,102557.27
2024-02-17T03:57:15.110Z,102549.98
2024-02-17T03:59:42.516Z,102552.32
2024-02-17T04:02:09.918Z,102546.85
2024-02-17T04:04:37.294Z,102543.02
2024-02-17T04:07:04.781Z,102541.63
2024-02-17T04:09:32.378Z,102532.80
2024-02-17T04:11:59.885Z,102528.20
2024-02-17T04:14:27.117Z,102528.35
2024-02-17T04:16:54.385Z,102530.63
2024-02-17T04:19:21.808Z,102530.04
2024-02-17T04:21:49.154Z,102525.15
2024-02-17T04:24:16.697Z,102525.76
2024-02-17T04:26:44.143Z,102526.39
2024-02-17T04:29:17.099Z,102522.80
2024-02-17T04:31:44.548Z,102523.27
2024-02-17T04:34:11.908Z,102515.97
2024-02-17T04:36:39.410Z,102513.17
2024-02-17T04:39:07.269Z,102516.04
2024-02-17T04:41:34.533Z,102512.17
2024-02-17T04:44:01.787Z,102513.43
2024-02-17T04:46:28.978Z,102506.46
2024-02-17T04:48:56.296Z,102510.32
2024-02-17T04:51:23.652Z,102504.61
2024-02-17T04:53:51.507Z,102502.10
2024-02-17T04:56:19.418Z,102497.39
2024-02-17T04:58:46.821Z,102491.52
2024-02-17T05:01:14.377Z,102492.70
2024-02-17T05:03:42.081Z,102491.46
2024-02-17T05:06:12.644Z,102495.05
2024-02-17T05:08:40.017Z,102502.85
2024-02-17T05:11:08.308Z,102495.45
2024-02-17T05:13:35.728Z,102497.61
2024-02-17T05:16:03.334Z,102501.18
2024-02-17T05:18:30.637Z,102500.13
2024-02-17T05:23:49.272Z,102565.04
2024-02-17T05:26:15.756Z,102670.02
2024-02-17T05:28:42.267Z,102633.77
2024-02-17T05:31:25.066Z,102624.90
2024-02-17T05:33:52.085Z,102628.33
2024-02-17T05:36:18.694Z,102603.77
2024-02-17T05:38:45.318Z,102592.68
2024-02-17T05:41:12.829Z,102584.48
2024-02-17T05:43:39.285Z,102576.96
2024-02-17T05:46:05.921Z,102570.06
2024-02-17T05:48:32.632Z,102565.29
2024-02-17T05:51:00.269Z,102562.19
2024-02-17T05:53:27.093Z,102563.14
2024-02-17T05:55:53.796Z,102561.81
2024-02-17T05:58:20.264Z,102560.46
2024-02-17T06:00:47.064Z,102556.16
2024-02-17T06:03:15.127Z,102556.56
2024-02-17T06:05:41.728Z,102557.63
2024-02-17T06:08:08.195Z,102553.72
2024-02-17T06:10:35.024Z,102549.19
2024-02-17T06:13:01.456Z,102549.61
2024-02-17T06:15:28.017Z,102546.92
2024-02-17T06:18:13.363Z,102542.70
2024-02-17T06:20:59.432Z,102555.55
2024-02-17T06:23:25.896Z,102559.07
2024-02-17T06:25:53.553Z,102542.08
2024-02-17T06:28:20.289Z,102540.32
2024-02-17T06:30:46.950Z,102540.34
2024-02-17T06:33:13.849Z,102542.86
2024-02-17T06:35:40.469Z,102546.19
2024-02-17T06:38:07.011Z,102549.28
2024-02-17T06:40:33.785Z,102551.45
2024-02-17T06:43:00.186Z,102549.16
2024-02-17T06:45:26.742Z,102546.72
2024-02-17T06:47:53.193Z,102546.16
2024-02-17T06:50:25.078Z,102547.54
2024-02-17T06:52:52.749Z,102552.67
2024-02-17T06:55:19.379Z,102552.32
2024-02-17T06:57:46.148Z,102548.80
2024-02-17T07:00:13.527Z,102548.73
2024-02-17T07:02:39.984Z,102546.15
2024-02-17T07:05:07.523Z,102549.93
2024-02-17T07:07:34.250Z,102546.81
2024-02-17T07:10:04.273Z,102545.86
2024-02-17T07:12:32.494Z,102546.26
2024-02-17T07:14:58.864Z,102550.55
2024-02-17T07:17:25.409Z,102550.77
2024-02-17T07:19:52.063Z,102550.24
2024-02-17T07:22:18.636Z,102551.15
2024-02-17T07:24:45.340Z,102550.08
2024-02-17T07:27:11.997Z,102551.63
2024-02-17T07:29:39.556Z,102552.52
2024-02-17T07:32:06.529Z,102551.88
2024-02-17T07:34:34.058Z,102557.30
2024-02-17T07:37:02.884Z,102563.77
2024-02-17T07:39:30.114Z,102566.16
2024-02-17T07:41:56.577Z,102563.79
2024-02-17T07:44:24.183Z,102563.14
2024-02-17T07:46:51.160Z,102564.12
2024-02-17T07:49:18.325Z,102563.32
2024-02-17T07:51:45.195Z,102564.61
2024-02-17T07:54:11.988Z,102565.69
2024-02-17T07:56:38.456Z,102561.65
2024-02-17T07:59:07.277Z,102562.92
2024-02-17T08:01:34.353Z,102564.73
2024-02-17T08:04:01.289Z,102562.77
2024-02-17T08:06:28.415Z,102563.27
2024-02-17T08:08:55.110Z,102561.48
2024-02-17T08:11:21.649Z,102561.45
2024-02-17T08:13:48.546Z,102562.39
2024-02-17T08:16:15.068Z,102558.89
2024-02-17T08:18:43.765Z,102559.09
2024-02-17T08:21:10.632Z,102556.66
2024-02-17T08:23:37.173Z,102562.77
2024-02-17T08:26:06.166Z,102563.46
2024-02-17T08:28:34.119Z,102566.04
2024-02-17T08:31:01.064Z,102562.10
2024-02-17T08:33:30.948Z,102561.88
2024-02-17T08:35:58.620Z,102561.46
2024-02-17T08:38:25.326Z,102563.17
2024-02-17T08:40:51.913Z,102564.69
2024-02-17T08:43:18.490Z,102558.60
2024-02-17T08:45:45.050Z,102558.14
2024-02-17T08:48:12.337Z,102563.69
2024-02-17T08:50:39.973Z,102561.02
2024-02-17T08:53:06.503Z,102566.08
2024-02-17T08:55:33.011Z,102568.16
2024-02-17T08:57:59.480Z,102573.61
2024-02-17T09:00:26.101Z,102575.21
2024-02-17T09:02:53.072Z,102580.85
2024-02-17T09:05:20.055Z,102586.13
2024-02-17T09:07:46.971Z,102596.52
2024-02-17T09:10:15.875Z,102599.98
2024-02-17T09:12:43.098Z,102604.39
2024-02-17T09:15:10.555Z,102609.33
2024-02-17T09:17:37.321Z,102610.28
2024-02-17T09:20:05.266Z,102607.52
2024-02-17T09:22:32.274Z,102607.60
2024-02-17T09:24:58.924Z,102609.13
2024-02-17T09:27:25.583Z,102611.34
2024-02-17T09:29:52.428Z,102610.02
2024-02-17T09:32:19.008Z,102613.45
2024-02-17T09:34:45.564Z,102614.57
2024-02-17T09:37:12.795Z,102612.29
2024-02-17T09:39:40.602Z,102609.66
2024-02-17T09:42:08.123Z,102609.89
2024-02-17T09:44:34.734Z,102612.77
2024-02-17T09:47:01.222Z,102612.58
2024-02-17T09:49:28.020Z,102612.58
2024-02-17T09:51:54.818Z,102608.11
2024-02-17T09:54:22.116Z,102608.45
2024-02-17T09:56:49.775Z,102603.09
2024-02-17T09:59:16.132Z,102601.17
2024-02-17T10:01:43.143Z,102605.29
2024-02-17T10:04:09.962Z,102600.92
2024-02-17T10:06:36.907Z,102597.64
2024-02-17T10:09:03.766Z,102596.45
2024-02-17T10:11:30.916Z,102591.50
2024-02-17T10:14:04.154Z,102589.33
2024-02-17T10:16:32.219Z,102593.05
2024-02-17T10:19:00.503Z,102590.79
2024-02-17T10:21:27.016Z,102589.94
2024-02-17T10:23:53.970Z,102579.84
2024-02-17T10:26:20.525Z,102577.43
2024-02-17T10:28:56.719Z,102577.16
2024-02-17T10:31:23.414Z,102585.71
2024-02-17T10:33:53.053Z,102578.64
2024-02-17T10:36:20.230Z,102576.56
2024-02-17T10:38:46.902Z,102575.92
2024-02-17T10:41:13.440Z,102575.30
2024-02-17T10:43:43.860Z,102573.91
2024-02-17T10:46:23.059Z,102577.48
2024-02-17T10:49:01.920Z,102582.66
2024-02-17T10:51:28.991Z,102584.96
2024-02-17T10:53:59.453Z,102563.67
2024-02-17T10:56:25.876Z,102567.58
2024-02-17T10:58:54.971Z,102555.52
2024-02-17T11:01:21.490Z,102558.02
2024-02-17T11:03:48.254Z,102556.11
2024-02-17T11:06:16.144Z,102552.94
2024-02-17T11:08:42.752Z,102546.77
2024-02-17T11:11:33.326Z,102543.22
2024-02-17T11:14:00.073Z,102567.83
2024-02-17T11:16:31.994Z,102546.56
2024-02-17T11:18:59.472Z,102546.60
2024-02-17T11:21:36.891Z,102543.08
2024-02-17T11:24:03.784Z,102551.01
2024-02-17T11:26:37.261Z,102545.48
2024-02-17T11:29:27.066Z,102558.80
2024-02-17T11:31:56.458Z,102562.48
2024-02-17T11:34:25.391Z,102549.27
2024-02-17T11:36:52.055Z,102546.55
2024-02-17T11:39:19.378Z,102534.98
2024-02-17T11:41:46.001Z,102530.48
2024-02-17T11:44:12.558Z,102521.41
2024-02-17T11:46:43.603Z,102522.64
2024-02-17T11:49:10.650Z,102523.12
2024-02-17T11:51:37.455Z,102516.52
2024-02-17T11:54:04.197Z,102510.09
2024-02-17T11:56:32.768Z,102505.09
2024-02-17T11:58:59.248Z,102501.86
2024-02-17T12:01:26.334Z,102498.12
2024-02-17T12:03:53.096Z,102493.15
2024-02-17T12:06:20.060Z,102494.88
2024-02-17T12:08:46.761Z,102488.61
2024-02-17T12:11:13.461Z,102483.79
2024-02-17T12:13:40.251Z,102481.46
2024-02-17T12:16:08.032Z,102471.19
2024-02-17T12:18:38.484Z,102468.65
2024-02-17T12:21:08.405Z,102466.07
2024-02-17T12:23:35.732Z,102463.35
2024-02-17T12:26:13.506Z,102457.64
2024-02-17T12:28:47.126Z,102475.38
2024-02-17T12:31:13.675Z,102467.12
2024-02-17T12:33:50.695Z,102464.17
2024-02-17T12:36:17.929Z,102469.30
2024-02-17T12:38:44.563Z,102456.42
2024-02-17T12:41:11.219Z,102452.46
2024-02-17T12:43:45.119Z,102447.98
2024-02-17T12:46:22.451Z,102457.44
2024-02-17T12:48:53.591Z,102456.63
2024-02-17T12:51:21.125Z,102444.00
2024-02-17T12:53:48.168Z,102439.29
2024-02-17T12:56:15.534Z,102429.46
2024-02-17T12:58:42.068Z,102425.73
2024-02-17T13:01:09.012Z,102427.32
2024-02-17T13:03:35.817Z,102428.91
2024-02-17T13:06:03.790Z,102429.61
2024-02-17T13:08:30.566Z,102431.93
2024-02-17T13:10:59.567Z,102428.06
2024-02-17T13:13:27.256Z,102419.89
2024-02-17T13:15:53.843Z,102414.93
2024-02-17T13:18:20.733Z,102412.80
2024-02-17T13:20:47.414Z,102413.48
2024-02-17T13:23:15.374Z,102410.39
2024-02-17T13:25:41.808Z,102412.09
2024-02-17T13:28:08.254Z,102405.15
2024-02-17T13:30:34.749Z,102400.94
2024-02-17T13:33:01.372Z,102400.05
2024-02-17T13:35:28.157Z,102397.42
2024-02-17T13:37:54.830Z,102396.05
2024-02-17T13:40:21.319Z,102390.77
2024-02-17T13:42:47.936Z,102388.30
2024-02-17T13:45:14.644Z,102386.89
2024-02-17T13:47:41.510Z,102385.13
2024-02-17T13:50:10.148Z,102376.63
2024-02-17T13:52:37.042Z,102377.85
2024-02-17T13:55:04.156Z,102376.26
2024-02-17T13:57:31.799Z,102368.65
2024-02-17T13:59:59.145Z,102369.13
2024-02-17T14:02:27.404Z,102369.45
2024-02-17T14:04:57.490Z,102369.08
2024-02-17T14:07:24.561Z,102369.77
2024-02-17T14:09:51.936Z,102366.09
2024-02-17T14:12:18.571Z,102360.09
2024-02-17T14:14:45.668Z,102356.60
2024-02-17T14:17:12.474Z,102355.19
2024-02-17T14:19:39.511Z,102357.84
2024-02-17T14:22:07.292Z,102356.05
2024-02-17T14:24:34.117Z,102350.73
2024-02-17T14:27:00.941Z,102344.70
2024-02-17T14:29:27.996Z,102345.71
2024-02-17T14:31:54.554Z,102334.70
2024-02-17T14:34:21.228Z,102330.98
2024-02-17T14:36:48.082Z,102331.73
2024-02-17T14:39:14.738Z,102330.36
2024-02-17T14:41:41.374Z,102330.59
2024-02-17T14:44:07.985Z,102334.67
2024-02-17T14:46:37.724Z,102331.36
2024-02-17T14:49:04.705Z,102334.92
2024-02-17T14:51:31.748Z,102335.29
2024-02-17T14:53:59.189Z,102333.89
2024-02-17T14:56:25.828Z,102334.98
2024-02-17T14:58:52.630Z,102338.94
2024-02-17T15:01:19.427Z,102337.05
2024-02-17T15:03:46.317Z,102336.17
2024-02-17T15:06:13.637Z,102339.38
2024-02-17T15:08:40.660Z,102338.66
2024-02-17T15:11:07.158Z,102336.02
2024-02-17T15:13:34.044Z,102335.33
2024-02-17T15:16:00.997Z,102334.42
2024-02-17T15:18:28.883Z,102329.46
2024-02-17T15:20:55.858Z,102323.81
2024-02-17T15:23:22.593Z,102320.10
2024-02-17T15:25:49.196Z,102318.86
2024-02-17T15:28:16.124Z,102317.10
2024-02-17T15:30:45.278Z,102316.22
2024-02-17T15:33:15.444Z,102318.02
2024-02-17T15:35:42.800Z,102321.61
2024-02-17T15:38:09.956Z,102327.68
2024-02-17T15:40:36.641Z,102323.33
2024-02-17T15:43:03.304Z,102325.14
2024-02-17T15:45:30.049Z,102325.52
2024-02-17T15:47:57.007Z,102325.92
2024-02-17T15:50:24.424Z,102325.58
2024-02-17T15:52:51.072Z,102322.75
2024-02-17T15:55:17.857Z,102318.32
2024-02-17T15:57:44.585Z,102322.02
2024-02-17T16:00:11.682Z,102321.14
2024-02-17T16:02:38.498Z,102324.33
2024-02-17T16:05:08.125Z,102325.77
2024-02-17T16:07:34.720Z,102330.05
2024-02-17T16:10:01.279Z,102327.77
2024-02-17T16:12:28.209Z,102330.65
2024-02-17T16:14:55.077Z,102333.89
2024-02-17T16:17:21.986Z,102342.98
2024-02-17T16:19:49.001Z,102338.93
2024-02-17T16:22:18.733Z,102344.09
2024-02-17T16:24:45.448Z,102350.67
2024-02-17T16:27:12.767Z,102350.01
2024-02-17T16:29:39.289Z,102355.17
2024-02-17T16:32:05.971Z,102356.45
2024-02-17T16:34:32.674Z,102354.24
2024-02-17T16:36:59.358Z,102352.01
2024-02-17T16:39:26.123Z,102349.54
2024-02-17T16:41:52.684Z,102350.61
2024-02-17T16:44:20.328Z,102339.25
2024-02-17T16:46:49.256Z,102338.20
2024-02-17T16:49:16.192Z,102344.94
2024-02-17T16:51:42.922Z,102349.00
2024-02-17T16:54:09.442Z,102349.11
2024-02-17T16:56:35.966Z,102343.22
2024-02-17T16:59:02.534Z,102340.37
2024-02-17T17:01:29.445Z,102339.70
2024-02-17T17:03:56.133Z,102336.89
2024-02-17T17:06:22.898Z,102330.93
2024-02-17T17:08:50.006Z,102334.69
2024-02-17T17:11:23.886Z,102336.52
2024-02-17T17:13:53.804Z,102336.96
2024-02-17T17:16:20.338Z,102332.80
2024-02-17T17:18:46.895Z,102325.56
2024-02-17T17:21:13.795Z,102321.00
2024-02-17T17:23:40.744Z,102322.82
2024-02-17T17:26:07.171Z,102323.05
2024-02-17T17:28:33.913Z,102322.55
2024-02-17T17:31:00.682Z,102323.80
2024-02-17T17:33:28.295Z,102322.91
2024-02-17T17:35:54.875Z,102321.28
2024-02-17T17:40:43.995Z,102375.02
2024-02-17T17:43:11.504Z,102480.20
2024-02-17T17:45:40.547Z,102456.27
2024-02-17T17:48:08.300Z,102445.46
2024-02-17T17:50:35.848Z,102430.77
2024-02-17T17:53:03.353Z,102416.62
2024-02-17T17:55:30.910Z,102408.33
2024-02-17T17:57:58.385Z,102408.71
2024-02-17T18:00:25.873Z,102405.38
2024-02-17T18:02:54.638Z,102401.34
2024-02-17T18:05:22.370Z,102394.28
2024-02-17T18:07:50.372Z,102389.73
2024-02-17T18:10:17.978Z,102394.56
2024-02-17T18:12:45.303Z,102389.66
2024-02-17T18:15:12.703Z,102386.34
2024-02-17T18:17:41.193Z,102387.13
2024-02-17T18:20:09.373Z,102405.42
2024-02-17T18:22:36.766Z,102410.40
2024-02-17T18:25:04.854Z,102399.06
2024-02-17T18:27:32.206Z,102397.70
2024-02-17T18:29:59.773Z,102395.57
2024-02-17T18:32:27.033Z,102396.99
2024-02-17T18:34:54.516Z,102397.89
2024-02-17T18:37:21.837Z,102387.98
2024-02-17T18:39:49.131Z,102388.15
2024-02-17T18:42:16.706Z,102388.00
2024-02-17T18:44:44.037Z,102390.87
2024-02-17T18:47:11.341Z,102383.30
2024-02-17T18:49:38.865Z,102389.55
2024-02-17T18:52:06.942Z,102397.65
2024-02-17T18:54:34.341Z,102400.56
2024-02-17T18:57:01.731Z,102406.13
2024-02-17T18:59:28.968Z,102403.75
2024-02-17T19:01:56.689Z,102405.98
2024-02-17T19:04:24.125Z,102410.86
2024-02-17T19:06:52.164Z,102406.66
2024-02-17T19:09:19.525Z,102410.56
2024-02-17T19:11:46.861Z,102410.52
2024-02-17T19:14:16.080Z,102409.95
2024-02-17T19:16:43.395Z,102409.15
2024-02-17T19:19:10.804Z,102402.90
2024-02-17T19:21:38.138Z,102402.50
2024-02-17T19:24:07.166Z,102399.10
2024-02-17T19:26:35.621Z,102396.77
2024-02-17T19:29:03.227Z,102393.59
2024-02-17T19:31:30.546Z,102389.70
2024-02-17T19:33:58.487Z,102394.51
2024-02-17T19:36:26.018Z,102397.18
2024-02-17T19:38:53.363Z,102392.77
2024-02-17T19:41:20.699Z,102388.38
2024-02-17T19:43:49.834Z,102392.52
2024-02-17T19:46:17.542Z,102389.33
2024-02-17T19:48:45.002Z,102390.21
2024-02-17T19:51:12.955Z,102391.62
2024-02-17T19:53:40.393Z,102391.94
2024-02-17T19:56:07.652Z,102392.77
2024-02-17T19:58:34.925Z,102389.70
2024-02-17T20:01:02.351Z,102384.51
2024-02-17T20:03:30.013Z,102377.20
2024-02-17T20:05:57.421Z,102371.70
2024-02-17T20:08:24.861Z,102375.08
2024-02-17T20:10:52.281Z,102372.44
2024-02-17T20:13:20.148Z,102367.13
2024-02-17T20:15:47.460Z,102363.95
2024-02-17T20:18:14.963Z,102363.80
2024-02-17T20:20:42.427Z,102359.94
2024-02-17T20:23:09.746Z,102361.91
2024-02-17T20:25:37.098Z,102356.96
2024-02-17T20:28:05.242Z,102354.69
2024-02-17T20:30:32.752Z,102355.60
2024-02-17T20:33:00.315Z,102360.92
2024-02-17T20:35:27.845Z,102357.54
2024-02-17T20:37:55.249Z,102356.63
2024-02-17T20:40:22.514Z,102356.94
2024-02-17T20:42:49.880Z,102357.29
2024-02-17T20:45:19.320Z,102354.98
2024-02-17T20:47:46.781Z,102360.31
2024-02-17T20:50:14.257Z,102357.12
2024-02-17T20:52:42.223Z,102361.77
2024-02-17T20:55:09.800Z,102360.39
2024-02-17T20:57:37.448Z,102359.53
2024-02-17T21:00:05.403Z,102362.57
2024-02-17T21:02:37.649Z,102356.02
2024-02-17T21:05:06.446Z,102358.20
2024-02-17T21:07:33.901Z,102360.73
2024-02-17T21:10:02.210Z,102359.50
2024-02-17T21:12:29.672Z,102356.31
2024-02-17T21:14:57.126Z,102350.45
2024-02-17T21:17:24.582Z,102345.98
2024-02-17T21:19:52.199Z,102342.54
2024-02-17T21:22:19.863Z,102345.31
2024-02-17T21:24:47.139Z,102339.92
2024-02-17T21:27:14.542Z,102342.37
2024-02-17T21:29:41.797Z,102341.99
2024-02-17T21:32:09.042Z,102342.71
2024-02-17T21:34:36.375Z,102340.95
2024-02-17T21:37:03.855Z,102336.22
2024-02-17T21:39:33.639Z,102336.43
2024-02-17T21:42:00.997Z,102343.75
2024-02-17T21:44:28.323Z,102344.16
2024-02-17T21:46:55.761Z,102343.28
2024-02-17T21:49:23.948Z,102346.14
2024-02-17T21:51:51.521Z,102338.86
2024-02-17T21:54:19.130Z,102331.91
2024-02-17T21:56:46.435Z,102332.45
2024-02-17T21:59:13.839Z,102329.62
2024-02-17T22:01:44.593Z,102328.94
2024-02-17T22:04:17.587Z,102341.19
2024-02-17T22:06:44.893Z,102331.77
2024-02-17T22:09:12.214Z,102321.77
2024-02-17T22:11:39.786Z,102321.20
2024-02-17T22:14:09.635Z,102317.61
2024-02-17T22:16:36.929Z,102323.58
2024-02-17T22:19:04.781Z,102318.20
2024-02-17T22:21:32.330Z,102318.88
2024-02-17T22:23:59.652Z,102313.36
2024-02-17T22:26:27.079Z,102312.65
2024-02-17T22:28:54.316Z,102315.16
2024-02-17T22:31:28.094Z,102309.53
2024-02-17T22:33:55.612Z,102315.77
2024-02-17T22:36:22.986Z,102307.59
2024-02-17T22:38:50.320Z,102296.60
2024-02-17T22:41:17.747Z,102283.85
2024-02-17T22:43:44.949Z,102286.17
2024-02-17T22:46:12.762Z,102287.76
2024-02-17T22:48:40.220Z,102284.94
2024-02-17T22:51:07.651Z,102288.33
2024-02-17T22:53:35.747Z,102284.60
2024-02-17T22:56:03.072Z,102288.17
2024-02-17T22:58:30.299Z,102283.58
2024-02-17T23:00:57.613Z,102287.31
2024-02-17T23:03:25.045Z,102284.12
2024-02-17T23:05:52.388Z,102285.52
2024-02-17T23:08:19.856Z,102286.41
2024-02-17T23:10:47.077Z,102279.82
2024-02-17T23:13:14.354Z,102282.09
2024-02-17T23:15:41.743Z,102285.95
2024-02-17T23:18:09.313Z,102285.75
2024-02-17T23:20:37.302Z,102278.45
2024-02-17T23:23:12.902Z,102282.51
2024-02-17T23:25:41.059Z,102285.52
2024-02-17T23:28:08.507Z,102274.04
2024-02-17T23:30:35.867Z,102281.36
2024-02-17T23:33:03.498Z,102278.73
2024-02-17T23:35:30.853Z,102281.44
2024-02-17T23:37:58.164Z,102277.38
2024-02-17T23:40:25.908Z,102278.27
2024-02-17T23:42:53.347Z,102279.55
2024-02-17T23:45:20.827Z,102277.80
2024-02-17T23:47:48.208Z,102273.19
2024-02-17T23:50:15.663Z,102268.24
2024-02-17T23:52:42.927Z,102261.02
2024-02-17T23:55:10.420Z,102260.33
2024-02-17T23:57:39.394Z,102259.66
